LCKA4: Locksburg, AR

Data processed at Fri Feb 23 2018 22:10


All information presented herein is the property of the government of the United States of America and may be revised or deleted at any time without prior notice.
Dissemination of this information without the expressed written consent of the Public Affairs Office, Tulsa District U.S. Army Corps of Engineers is strictly prohibited.
These data are gathered electronically and, as presented, have not undergone any form of quality control. These data are not guaranteed to be valid or correct.
Go to home page.
Go to station list.

Upstream stations:

Downstream station:
Previous Day
Next Day
Current Day
    
SHEF ID:       LCKA4     Saline River near Lockesburg, AR
STATION TYPE:  

               PRECIP     STAGE  RIV-FLOW  BAT-LOAD
                   in        ft       cfs      volt
              Ccp-Rev   Ccp-Rev   Ccp-Rev   Ccp-Rev
(US/Central)
02/23 00:00      0.00     15.47      4787     12.54
02/23 01:00      0.00     15.48      4824     12.54
02/23 02:00      0.00     15.51      4937     12.54
02/23 03:00      0.00     15.58      5290     12.54
02/23 04:00      0.00     15.66      5722     12.54
02/23 05:00      0.00     15.67      5778     12.54
02/23 06:00      0.00     15.71      6007     12.54
02/23 07:00      0.00     15.76      6306     12.54
02/23 08:00      0.00     15.80      6590     12.54
02/23 09:00      0.00     15.86      7205     12.54
02/23 10:00      0.00     15.94      8111     12.60
02/23 11:00      0.00     16.00      8860     12.77
02/23 12:00      0.00     16.04      9395     12.83
02/23 13:00      0.00     16.10     10203     13.00
02/23 14:00      0.00     16.16     10798     13.07
02/23 15:00      0.00     16.23     11489     13.07
02/23 16:00      0.00     16.32     12099     13.12
02/23 17:00      0.00     16.40     12663     13.18
02/23 18:00      0.00     16.48     13208     13.07
02/23 19:00      0.00     16.54     13618     12.89
02/23 20:00      0.00     16.60     14039     12.89
02/23 21:00      0.00     16.64     14326     12.89
02/23 22:00      ----      ----      ----      ----
02/23 23:00      ----      ----      ----      ----